sensor_id;sensor_type;location;lat;lon;timestamp;P1;durP1;ratioP1;P2;durP2;ratioP2
34585;SDS011;20816;50.950;11.108;2023-02-14T00:01:06;5.87;;;3.10;;
34585;SDS011;20816;50.950;11.108;2023-02-14T00:03:35;5.27;;;3.33;;
34585;SDS011;20816;50.950;11.108;2023-02-14T00:06:08;5.83;;;2.67;;
34585;SDS011;20816;50.950;11.108;2023-02-14T00:08:37;5.30;;;3.13;;
34585;SDS011;20816;50.950;11.108;2023-02-14T00:11:04;6.30;;;4.07;;
34585;SDS011;20816;50.950;11.108;2023-02-14T00:13:31;7.37;;;3.10;;
34585;SDS011;20816;50.950;11.108;2023-02-14T00:15:58;5.37;;;3.10;;
34585;SDS011;20816;50.950;11.108;2023-02-14T00:18:25;5.13;;;3.07;;
34585;SDS011;20816;50.950;11.108;2023-02-14T00:21:11;4.50;;;2.27;;
34585;SDS011;20816;50.950;11.108;2023-02-14T00:23:37;4.67;;;2.90;;
34585;SDS011;20816;50.950;11.108;2023-02-14T00:26:04;6.63;;;2.30;;
34585;SDS011;20816;50.950;11.108;2023-02-14T00:28:31;5.10;;;2.70;;
34585;SDS011;20816;50.950;11.108;2023-02-14T00:30:59;7.27;;;2.97;;
34585;SDS011;20816;50.950;11.108;2023-02-14T00:33:27;9.50;;;3.13;;
34585;SDS011;20816;50.950;11.108;2023-02-14T00:35:54;4.17;;;2.63;;
34585;SDS011;20816;50.950;11.108;2023-02-14T00:38:20;9.10;;;3.40;;
34585;SDS011;20816;50.950;11.108;2023-02-14T00:40:47;4.27;;;2.80;;
34585;SDS011;20816;50.950;11.108;2023-02-14T00:43:13;6.30;;;2.40;;
34585;SDS011;20816;50.950;11.108;2023-02-14T00:45:40;4.00;;;2.67;;
34585;SDS011;20816;50.950;11.108;2023-02-14T00:48:08;4.03;;;2.33;;
34585;SDS011;20816;50.950;11.108;2023-02-14T00:50:42;3.23;;;2.43;;
34585;SDS011;20816;50.950;11.108;2023-02-14T00:53:11;4.57;;;2.23;;
34585;SDS011;20816;50.950;11.108;2023-02-14T00:55:38;7.63;;;2.77;;
34585;SDS011;20816;50.950;11.108;2023-02-14T00:58:07;3.93;;;3.00;;
34585;SDS011;20816;50.950;11.108;2023-02-14T01:00:33;3.97;;;2.63;;
34585;SDS011;20816;50.950;11.108;2023-02-14T01:03:00;4.87;;;2.60;;
34585;SDS011;20816;50.950;11.108;2023-02-14T01:05:26;3.07;;;2.00;;
34585;SDS011;20816;50.950;11.108;2023-02-14T01:07:53;4.40;;;3.07;;
34585;SDS011;20816;50.950;11.108;2023-02-14T01:10:19;5.60;;;3.07;;
34585;SDS011;20816;50.950;11.108;2023-02-14T01:12:48;4.33;;;2.53;;
34585;SDS011;20816;50.950;11.108;2023-02-14T01:15:15;4.03;;;2.23;;
34585;SDS011;20816;50.950;11.108;2023-02-14T01:17:41;4.53;;;2.47;;
34585;SDS011;20816;50.950;11.108;2023-02-14T01:20:09;6.63;;;2.63;;
34585;SDS011;20816;50.950;11.108;2023-02-14T01:22:36;4.90;;;2.50;;
34585;SDS011;20816;50.950;11.108;2023-02-14T01:25:08;2.63;;;1.80;;
34585;SDS011;20816;50.950;11.108;2023-02-14T01:27:35;4.17;;;2.23;;
34585;SDS011;20816;50.950;11.108;2023-02-14T01:30:02;5.27;;;1.67;;
34585;SDS011;20816;50.950;11.108;2023-02-14T01:32:30;3.07;;;1.77;;
34585;SDS011;20816;50.950;11.108;2023-02-14T01:34:57;4.10;;;2.37;;
34585;SDS011;20816;50.950;11.108;2023-02-14T01:37:24;2.80;;;1.93;;
34585;SDS011;20816;50.950;11.108;2023-02-14T01:39:53;5.37;;;2.20;;
34585;SDS011;20816;50.950;11.108;2023-02-14T01:42:19;3.10;;;1.87;;
34585;SDS011;20816;50.950;11.108;2023-02-14T01:47:13;4.37;;;2.10;;
34585;SDS011;20816;50.950;11.108;2023-02-14T01:49:42;2.43;;;1.60;;
34585;SDS011;20816;50.950;11.108;2023-02-14T01:52:16;3.73;;;1.93;;
34585;SDS011;20816;50.950;11.108;2023-02-14T01:54:53;4.73;;;2.27;;
34585;SDS011;20816;50.950;11.108;2023-02-14T01:57:23;2.97;;;1.90;;
34585;SDS011;20816;50.950;11.108;2023-02-14T01:59:58;6.50;;;2.70;;
34585;SDS011;20816;50.950;11.108;2023-02-14T02:02:46;4.67;;;2.23;;
34585;SDS011;20816;50.950;11.108;2023-02-14T02:05:15;3.87;;;2.30;;
34585;SDS011;20816;50.950;11.108;2023-02-14T02:07:49;10.40;;;2.77;;
34585;SDS011;20816;50.950;11.108;2023-02-14T02:10:17;5.93;;;2.33;;
34585;SDS011;20816;50.950;11.108;2023-02-14T02:12:44;4.37;;;2.20;;
34585;SDS011;20816;50.950;11.108;2023-02-14T02:15:13;3.50;;;2.00;;
34585;SDS011;20816;50.950;11.108;2023-02-14T02:26:33;2.07;;;1.23;;
34585;SDS011;20816;50.950;11.108;2023-02-14T02:29:19;2.83;;;1.93;;
34585;SDS011;20816;50.950;11.108;2023-02-14T02:42:49;5.17;;;3.07;;
34585;SDS011;20816;50.950;11.108;2023-02-14T02:48:33;3.60;;;1.70;;
34585;SDS011;20816;50.950;11.108;2023-02-14T02:51:12;2.63;;;1.70;;
34585;SDS011;20816;50.950;11.108;2023-02-14T02:54:19;2.00;;;1.60;;
34585;SDS011;20816;50.950;11.108;2023-02-14T02:56:55;2.87;;;1.80;;
34585;SDS011;20816;50.950;11.108;2023-02-14T02:59:30;2.90;;;1.73;;
34585;SDS011;20816;50.950;11.108;2023-02-14T03:02:04;1.80;;;1.30;;
34585;SDS011;20816;50.950;11.108;2023-02-14T03:04:35;2.67;;;1.60;;
34585;SDS011;20816;50.950;11.108;2023-02-14T03:07:35;3.23;;;1.77;;
34585;SDS011;20816;50.950;11.108;2023-02-14T03:18:11;2.77;;;1.73;;
34585;SDS011;20816;50.950;11.108;2023-02-14T03:21:04;3.10;;;1.53;;
34585;SDS011;20816;50.950;11.108;2023-02-14T03:27:07;1.97;;;1.20;;
34585;SDS011;20816;50.950;11.108;2023-02-14T03:37:51;3.70;;;1.93;;
34585;SDS011;20816;50.950;11.108;2023-02-14T03:40:25;3.30;;;1.70;;
34585;SDS011;20816;50.950;11.108;2023-02-14T03:42:57;3.83;;;2.00;;
34585;SDS011;20816;50.950;11.108;2023-02-14T03:45:32;4.43;;;1.80;;
34585;SDS011;20816;50.950;11.108;2023-02-14T03:48:03;5.30;;;2.40;;
34585;SDS011;20816;50.950;11.108;2023-02-14T03:50:33;3.33;;;2.37;;
34585;SDS011;20816;50.950;11.108;2023-02-14T03:53:03;3.77;;;2.17;;
34585;SDS011;20816;50.950;11.108;2023-02-14T03:55:44;4.23;;;1.60;;
34585;SDS011;20816;50.950;11.108;2023-02-14T03:58:18;4.53;;;2.73;;
34585;SDS011;20816;50.950;11.108;2023-02-14T04:00:50;2.93;;;2.17;;
34585;SDS011;20816;50.950;11.108;2023-02-14T04:03:23;4.87;;;2.00;;
34585;SDS011;20816;50.950;11.108;2023-02-14T04:05:52;2.67;;;1.23;;
34585;SDS011;20816;50.950;11.108;2023-02-14T04:08:23;5.27;;;2.30;;
34585;SDS011;20816;50.950;11.108;2023-02-14T04:10:56;3.17;;;1.50;;
34585;SDS011;20816;50.950;11.108;2023-02-14T04:13:26;3.53;;;1.93;;
34585;SDS011;20816;50.950;11.108;2023-02-14T04:15:53;4.63;;;2.17;;
34585;SDS011;20816;50.950;11.108;2023-02-14T04:18:20;3.73;;;2.13;;
34585;SDS011;20816;50.950;11.108;2023-02-14T04:21:05;4.00;;;2.33;;
34585;SDS011;20816;50.950;11.108;2023-02-14T04:23:32;3.13;;;1.77;;
34585;SDS011;20816;50.950;11.108;2023-02-14T04:25:58;1.90;;;1.27;;
34585;SDS011;20816;50.950;11.108;2023-02-14T04:28:25;2.87;;;1.87;;
34585;SDS011;20816;50.950;11.108;2023-02-14T04:30:57;2.93;;;1.43;;
34585;SDS011;20816;50.950;11.108;2023-02-14T04:33:27;2.33;;;1.67;;
34585;SDS011;20816;50.950;11.108;2023-02-14T04:35:54;4.80;;;2.27;;
34585;SDS011;20816;50.950;11.108;2023-02-14T04:38:20;5.27;;;2.00;;
34585;SDS011;20816;50.950;11.108;2023-02-14T04:40:48;5.63;;;2.00;;
34585;SDS011;20816;50.950;11.108;2023-02-14T04:43:15;3.23;;;1.43;;
34585;SDS011;20816;50.950;11.108;2023-02-14T04:45:45;2.57;;;2.20;;
34585;SDS011;20816;50.950;11.108;2023-02-14T04:48:12;3.67;;;2.33;;
34585;SDS011;20816;50.950;11.108;2023-02-14T04:50:39;4.90;;;1.90;;
34585;SDS011;20816;50.950;11.108;2023-02-14T04:53:05;4.60;;;1.83;;
34585;SDS011;20816;50.950;11.108;2023-02-14T04:55:32;3.13;;;1.87;;
34585;SDS011;20816;50.950;11.108;2023-02-14T04:57:58;3.20;;;2.40;;
34585;SDS011;20816;50.950;11.108;2023-02-14T05:00:25;2.47;;;1.63;;
34585;SDS011;20816;50.950;11.108;2023-02-14T05:02:51;3.03;;;1.97;;
34585;SDS011;20816;50.950;11.108;2023-02-14T05:05:20;5.80;;;1.87;;
34585;SDS011;20816;50.950;11.108;2023-02-14T05:07:49;4.53;;;2.17;;
34585;SDS011;20816;50.950;11.108;2023-02-14T05:10:15;3.03;;;1.80;;
34585;SDS011;20816;50.950;11.108;2023-02-14T05:12:42;7.53;;;2.73;;
34585;SDS011;20816;50.950;11.108;2023-02-14T05:15:10;5.17;;;3.63;;
34585;SDS011;20816;50.950;11.108;2023-02-14T05:17:36;6.80;;;2.97;;
34585;SDS011;20816;50.950;11.108;2023-02-14T05:20:03;6.20;;;3.00;;
34585;SDS011;20816;50.950;11.108;2023-02-14T05:22:31;3.57;;;2.60;;
34585;SDS011;20816;50.950;11.108;2023-02-14T05:25:00;3.27;;;2.40;;
34585;SDS011;20816;50.950;11.108;2023-02-14T05:27:27;3.90;;;1.87;;
34585;SDS011;20816;50.950;11.108;2023-02-14T05:29:53;5.57;;;2.30;;
34585;SDS011;20816;50.950;11.108;2023-02-14T05:32:20;5.40;;;2.20;;
34585;SDS011;20816;50.950;11.108;2023-02-14T05:34:46;8.40;;;3.27;;
34585;SDS011;20816;50.950;11.108;2023-02-14T05:37:13;6.53;;;2.43;;
34585;SDS011;20816;50.950;11.108;2023-02-14T05:39:40;4.13;;;2.27;;
34585;SDS011;20816;50.950;11.108;2023-02-14T05:42:07;5.57;;;2.43;;
34585;SDS011;20816;50.950;11.108;2023-02-14T05:44:36;6.87;;;2.93;;
34585;SDS011;20816;50.950;11.108;2023-02-14T05:47:02;5.73;;;2.03;;
34585;SDS011;20816;50.950;11.108;2023-02-14T05:49:29;6.87;;;2.83;;
34585;SDS011;20816;50.950;11.108;2023-02-14T05:51:55;4.60;;;2.30;;
34585;SDS011;20816;50.950;11.108;2023-02-14T05:54:22;4.77;;;2.73;;
34585;SDS011;20816;50.950;11.108;2023-02-14T05:56:48;5.90;;;3.60;;
34585;SDS011;20816;50.950;11.108;2023-02-14T05:59:22;11.13;;;2.47;;
34585;SDS011;20816;50.950;11.108;2023-02-14T06:01:48;5.07;;;2.60;;
34585;SDS011;20816;50.950;11.108;2023-02-14T06:04:15;5.43;;;2.23;;
34585;SDS011;20816;50.950;11.108;2023-02-14T06:06:42;5.07;;;2.43;;
34585;SDS011;20816;50.950;11.108;2023-02-14T06:09:12;4.63;;;2.73;;
34585;SDS011;20816;50.950;11.108;2023-02-14T06:11:46;3.87;;;2.70;;
34585;SDS011;20816;50.950;11.108;2023-02-14T06:14:13;5.13;;;2.33;;
34585;SDS011;20816;50.950;11.108;2023-02-14T06:16:39;5.53;;;2.47;;
34585;SDS011;20816;50.950;11.108;2023-02-14T06:19:08;4.57;;;2.67;;
34585;SDS011;20816;50.950;11.108;2023-02-14T06:21:37;3.07;;;2.00;;
34585;SDS011;20816;50.950;11.108;2023-02-14T06:24:04;7.30;;;2.53;;
34585;SDS011;20816;50.950;11.108;2023-02-14T06:26:30;3.47;;;2.37;;
34585;SDS011;20816;50.950;11.108;2023-02-14T06:28:58;3.43;;;2.27;;
34585;SDS011;20816;50.950;11.108;2023-02-14T06:31:24;4.40;;;2.40;;
34585;SDS011;20816;50.950;11.108;2023-02-14T06:33:51;4.47;;;2.33;;
34585;SDS011;20816;50.950;11.108;2023-02-14T06:36:21;7.23;;;3.20;;
34585;SDS011;20816;50.950;11.108;2023-02-14T06:38:48;5.57;;;2.53;;
34585;SDS011;20816;50.950;11.108;2023-02-14T06:41:18;5.10;;;2.70;;
34585;SDS011;20816;50.950;11.108;2023-02-14T06:43:46;5.70;;;2.53;;
34585;SDS011;20816;50.950;11.108;2023-02-14T06:46:16;2.53;;;1.67;;
34585;SDS011;20816;50.950;11.108;2023-02-14T06:48:43;4.97;;;2.87;;
34585;SDS011;20816;50.950;11.108;2023-02-14T06:51:10;4.80;;;2.47;;
34585;SDS011;20816;50.950;11.108;2023-02-14T06:53:38;5.17;;;2.87;;
34585;SDS011;20816;50.950;11.108;2023-02-14T06:56:04;3.53;;;2.00;;
34585;SDS011;20816;50.950;11.108;2023-02-14T06:58:32;2.77;;;2.17;;
34585;SDS011;20816;50.950;11.108;2023-02-14T07:01:01;3.40;;;1.70;;
34585;SDS011;20816;50.950;11.108;2023-02-14T07:03:28;5.70;;;2.27;;
34585;SDS011;20816;50.950;11.108;2023-02-14T07:05:56;4.47;;;2.53;;
34585;SDS011;20816;50.950;11.108;2023-02-14T07:08:22;9.80;;;2.27;;
34585;SDS011;20816;50.950;11.108;2023-02-14T07:10:54;3.67;;;2.27;;
34585;SDS011;20816;50.950;11.108;2023-02-14T07:13:22;3.77;;;2.83;;
34585;SDS011;20816;50.950;11.108;2023-02-14T07:15:50;4.47;;;2.20;;
34585;SDS011;20816;50.950;11.108;2023-02-14T07:18:16;4.83;;;2.67;;
34585;SDS011;20816;50.950;11.108;2023-02-14T07:20:43;3.37;;;2.20;;
34585;SDS011;20816;50.950;11.108;2023-02-14T07:23:10;8.70;;;3.47;;
34585;SDS011;20816;50.950;11.108;2023-02-14T07:25:36;4.07;;;2.87;;
34585;SDS011;20816;50.950;11.108;2023-02-14T07:28:03;7.17;;;2.73;;
34585;SDS011;20816;50.950;11.108;2023-02-14T07:30:30;3.87;;;2.23;;
34585;SDS011;20816;50.950;11.108;2023-02-14T07:32:57;14.53;;;3.50;;
34585;SDS011;20816;50.950;11.108;2023-02-14T07:35:26;7.57;;;3.67;;
34585;SDS011;20816;50.950;11.108;2023-02-14T07:37:53;9.47;;;2.53;;
34585;SDS011;20816;50.950;11.108;2023-02-14T07:40:19;4.30;;;2.80;;
34585;SDS011;20816;50.950;11.108;2023-02-14T07:42:53;4.23;;;2.67;;
34585;SDS011;20816;50.950;11.108;2023-02-14T07:45:21;3.43;;;3.00;;
34585;SDS011;20816;50.950;11.108;2023-02-14T07:47:53;6.90;;;3.17;;
34585;SDS011;20816;50.950;11.108;2023-02-14T07:50:21;6.17;;;2.80;;
34585;SDS011;20816;50.950;11.108;2023-02-14T07:52:53;4.87;;;2.67;;
34585;SDS011;20816;50.950;11.108;2023-02-14T07:55:21;2.93;;;2.03;;
34585;SDS011;20816;50.950;11.108;2023-02-14T07:57:51;4.23;;;2.73;;
34585;SDS011;20816;50.950;11.108;2023-02-14T08:00:18;4.27;;;2.43;;
34585;SDS011;20816;50.950;11.108;2023-02-14T08:02:45;4.47;;;2.87;;
34585;SDS011;20816;50.950;11.108;2023-02-14T08:05:14;4.57;;;2.90;;
34585;SDS011;20816;50.950;11.108;2023-02-14T08:07:41;2.70;;;1.87;;
34585;SDS011;20816;50.950;11.108;2023-02-14T08:10:09;4.27;;;2.93;;
34585;SDS011;20816;50.950;11.108;2023-02-14T08:12:38;6.27;;;3.83;;
34585;SDS011;20816;50.950;11.108;2023-02-14T08:15:24;4.73;;;2.57;;
34585;SDS011;20816;50.950;11.108;2023-02-14T08:18:11;4.93;;;2.87;;
34585;SDS011;20816;50.950;11.108;2023-02-14T08:20:38;5.47;;;3.27;;
34585;SDS011;20816;50.950;11.108;2023-02-14T08:23:05;6.23;;;2.87;;
34585;SDS011;20816;50.950;11.108;2023-02-14T08:25:32;4.70;;;3.30;;
34585;SDS011;20816;50.950;11.108;2023-02-14T08:28:03;6.40;;;3.43;;
34585;SDS011;20816;50.950;11.108;2023-02-14T08:30:30;8.53;;;4.03;;
34585;SDS011;20816;50.950;11.108;2023-02-14T08:32:57;6.10;;;3.53;;
34585;SDS011;20816;50.950;11.108;2023-02-14T08:35:24;5.90;;;3.33;;
34585;SDS011;20816;50.950;11.108;2023-02-14T08:37:51;5.87;;;3.03;;
34585;SDS011;20816;50.950;11.108;2023-02-14T08:40:18;7.63;;;3.93;;
34585;SDS011;20816;50.950;11.108;2023-02-14T08:42:45;4.77;;;3.23;;
34585;SDS011;20816;50.950;11.108;2023-02-14T08:45:13;4.57;;;3.77;;
34585;SDS011;20816;50.950;11.108;2023-02-14T08:47:40;7.57;;;3.93;;
34585;SDS011;20816;50.950;11.108;2023-02-14T08:50:11;7.23;;;4.37;;
34585;SDS011;20816;50.950;11.108;2023-02-14T08:52:40;8.63;;;5.20;;
34585;SDS011;20816;50.950;11.108;2023-02-14T08:55:09;9.43;;;3.87;;
34585;SDS011;20816;50.950;11.108;2023-02-14T08:57:37;7.47;;;3.53;;
34585;SDS011;20816;50.950;11.108;2023-02-14T09:00:05;4.87;;;4.13;;
34585;SDS011;20816;50.950;11.108;2023-02-14T09:02:33;7.87;;;4.10;;
34585;SDS011;20816;50.950;11.108;2023-02-14T09:05:00;5.97;;;3.53;;
34585;SDS011;20816;50.950;11.108;2023-02-14T09:07:27;6.40;;;3.87;;
34585;SDS011;20816;50.950;11.108;2023-02-14T09:09:54;7.60;;;4.43;;
34585;SDS011;20816;50.950;11.108;2023-02-14T09:12:23;6.63;;;4.37;;
34585;SDS011;20816;50.950;11.108;2023-02-14T09:14:55;8.07;;;4.33;;
34585;SDS011;20816;50.950;11.108;2023-02-14T09:17:22;7.30;;;4.40;;
34585;SDS011;20816;50.950;11.108;2023-02-14T09:19:49;6.77;;;4.10;;
34585;SDS011;20816;50.950;11.108;2023-02-14T09:22:16;7.90;;;5.07;;
34585;SDS011;20816;50.950;11.108;2023-02-14T09:24:45;8.33;;;5.17;;
34585;SDS011;20816;50.950;11.108;2023-02-14T09:27:14;6.90;;;4.47;;
34585;SDS011;20816;50.950;11.108;2023-02-14T09:29:41;6.70;;;3.97;;
34585;SDS011;20816;50.950;11.108;2023-02-14T09:32:08;7.53;;;4.40;;
34585;SDS011;20816;50.950;11.108;2023-02-14T09:34:35;8.53;;;3.90;;
34585;SDS011;20816;50.950;11.108;2023-02-14T09:37:20;6.20;;;3.97;;
34585;SDS011;20816;50.950;11.108;2023-02-14T09:39:47;9.10;;;4.80;;
34585;SDS011;20816;50.950;11.108;2023-02-14T09:45:09;8.23;;;4.27;;
34585;SDS011;20816;50.950;11.108;2023-02-14T09:48:30;4.43;;;3.33;;
34585;SDS011;20816;50.950;11.108;2023-02-14T09:50:43;4.97;;;3.30;;
34585;SDS011;20816;50.950;11.108;2023-02-14T09:53:21;5.67;;;3.40;;
34585;SDS011;20816;50.950;11.108;2023-02-14T10:01:35;5.83;;;4.20;;
34585;SDS011;20816;50.950;11.108;2023-02-14T10:04:25;4.33;;;3.07;;
34585;SDS011;20816;50.950;11.108;2023-02-14T10:09:39;4.60;;;2.63;;
34585;SDS011;20816;50.950;11.108;2023-02-14T10:12:34;4.90;;;3.20;;
34585;SDS011;20816;50.950;11.108;2023-02-14T10:15:16;4.63;;;3.33;;
34585;SDS011;20816;50.950;11.108;2023-02-14T10:17:47;6.40;;;3.50;;
34585;SDS011;20816;50.950;11.108;2023-02-14T10:23:04;8.67;;;3.00;;
34585;SDS011;20816;50.950;11.108;2023-02-14T10:25:47;6.00;;;3.43;;
34585;SDS011;20816;50.950;11.108;2023-02-14T10:28:24;5.73;;;3.83;;
34585;SDS011;20816;50.950;11.108;2023-02-14T10:31:04;6.60;;;3.57;;
34585;SDS011;20816;50.950;11.108;2023-02-14T10:33:41;6.03;;;3.27;;
34585;SDS011;20816;50.950;11.108;2023-02-14T10:41:46;8.50;;;3.63;;
34585;SDS011;20816;50.950;11.108;2023-02-14T10:46:53;6.33;;;3.33;;
34585;SDS011;20816;50.950;11.108;2023-02-14T10:55:00;5.37;;;3.47;;
34585;SDS011;20816;50.950;11.108;2023-02-14T10:57:42;6.53;;;4.23;;
34585;SDS011;20816;50.950;11.108;2023-02-14T11:02:50;14.03;;;8.07;;
34585;SDS011;20816;50.950;11.108;2023-02-14T11:05:35;4.57;;;3.07;;
34585;SDS011;20816;50.950;11.108;2023-02-14T11:08:13;4.90;;;3.23;;
34585;SDS011;20816;50.950;11.108;2023-02-14T11:10:43;7.13;;;3.53;;
34585;SDS011;20816;50.950;11.108;2023-02-14T11:13:27;3.83;;;3.33;;
34585;SDS011;20816;50.950;11.108;2023-02-14T11:15:58;3.63;;;2.90;;
34585;SDS011;20816;50.950;11.108;2023-02-14T11:18:28;5.43;;;3.60;;
34585;SDS011;20816;50.950;11.108;2023-02-14T11:21:12;3.57;;;2.77;;
34585;SDS011;20816;50.950;11.108;2023-02-14T11:23:43;5.50;;;3.47;;
34585;SDS011;20816;50.950;11.108;2023-02-14T11:26:19;6.30;;;3.60;;
34585;SDS011;20816;50.950;11.108;2023-02-14T11:31:28;4.70;;;3.50;;
34585;SDS011;20816;50.950;11.108;2023-02-14T11:34:00;6.03;;;3.83;;
34585;SDS011;20816;50.950;11.108;2023-02-14T11:36:30;4.70;;;3.53;;
34585;SDS011;20816;50.950;11.108;2023-02-14T11:39:24;5.33;;;3.97;;
34585;SDS011;20816;50.950;11.108;2023-02-14T11:41:54;6.33;;;3.33;;
34585;SDS011;20816;50.950;11.108;2023-02-14T11:44:24;5.73;;;3.50;;
34585;SDS011;20816;50.950;11.108;2023-02-14T11:46:54;6.60;;;3.93;;
34585;SDS011;20816;50.950;11.108;2023-02-14T11:49:24;6.13;;;3.53;;
34585;SDS011;20816;50.950;11.108;2023-02-14T11:51:54;19.57;;;4.20;;
34585;SDS011;20816;50.950;11.108;2023-02-14T11:54:40;6.67;;;3.37;;
34585;SDS011;20816;50.950;11.108;2023-02-14T11:57:16;4.17;;;2.63;;
34585;SDS011;20816;50.950;11.108;2023-02-14T11:59:45;4.93;;;3.80;;
34585;SDS011;20816;50.950;11.108;2023-02-14T12:02:23;7.80;;;3.83;;
34585;SDS011;20816;50.950;11.108;2023-02-14T12:04:54;6.60;;;3.43;;
34585;SDS011;20816;50.950;11.108;2023-02-14T12:07:32;5.20;;;3.73;;
34585;SDS011;20816;50.950;11.108;2023-02-14T12:10:15;5.20;;;3.27;;
34585;SDS011;20816;50.950;11.108;2023-02-14T12:12:52;5.60;;;3.60;;
34585;SDS011;20816;50.950;11.108;2023-02-14T12:21:22;4.83;;;3.37;;
34585;SDS011;20816;50.950;11.108;2023-02-14T12:23:59;6.37;;;4.03;;
34585;SDS011;20816;50.950;11.108;2023-02-14T12:26:40;6.43;;;4.10;;
34585;SDS011;20816;50.950;11.108;2023-02-14T12:32:18;5.83;;;3.07;;
34585;SDS011;20816;50.950;11.108;2023-02-14T12:34:48;5.03;;;2.90;;
34585;SDS011;20816;50.950;11.108;2023-02-14T12:37:21;3.10;;;2.70;;
34585;SDS011;20816;50.950;11.108;2023-02-14T12:40:10;6.00;;;3.13;;
34585;SDS011;20816;50.950;11.108;2023-02-14T12:42:59;7.27;;;3.13;;
34585;SDS011;20816;50.950;11.108;2023-02-14T12:45:44;5.03;;;3.17;;
34585;SDS011;20816;50.950;11.108;2023-02-14T12:48:41;3.97;;;2.93;;
34585;SDS011;20816;50.950;11.108;2023-02-14T13:05:48;4.80;;;3.77;;
34585;SDS011;20816;50.950;11.108;2023-02-14T13:17:09;8.63;;;4.17;;
34585;SDS011;20816;50.950;11.108;2023-02-14T13:22:43;5.90;;;4.30;;
34585;SDS011;20816;50.950;11.108;2023-02-14T13:25:23;4.43;;;2.97;;
34585;SDS011;20816;50.950;11.108;2023-02-14T13:28:05;9.30;;;4.07;;
34585;SDS011;20816;50.950;11.108;2023-02-14T13:30:36;5.43;;;3.27;;
34585;SDS011;20816;50.950;11.108;2023-02-14T13:36:09;5.63;;;4.03;;
34585;SDS011;20816;50.950;11.108;2023-02-14T13:38:48;5.67;;;3.43;;
34585;SDS011;20816;50.950;11.108;2023-02-14T13:41:18;5.47;;;3.27;;
34585;SDS011;20816;50.950;11.108;2023-02-14T13:43:47;5.20;;;2.87;;
34585;SDS011;20816;50.950;11.108;2023-02-14T13:46:20;6.40;;;3.90;;
34585;SDS011;20816;50.950;11.108;2023-02-14T13:51:59;5.33;;;3.57;;
34585;SDS011;20816;50.950;11.108;2023-02-14T13:54:33;6.27;;;3.90;;
34585;SDS011;20816;50.950;11.108;2023-02-14T13:57:22;7.53;;;4.30;;
34585;SDS011;20816;50.950;11.108;2023-02-14T14:00:20;6.57;;;3.60;;
34585;SDS011;20816;50.950;11.108;2023-02-14T14:02:56;6.73;;;3.53;;
34585;SDS011;20816;50.950;11.108;2023-02-14T14:10:56;5.67;;;3.90;;
34585;SDS011;20816;50.950;11.108;2023-02-14T14:18:50;7.47;;;4.20;;
34585;SDS011;20816;50.950;11.108;2023-02-14T14:29:27;4.60;;;3.50;;
34585;SDS011;20816;50.950;11.108;2023-02-14T14:32:09;5.43;;;3.77;;
34585;SDS011;20816;50.950;11.108;2023-02-14T14:34:47;5.50;;;3.43;;
34585;SDS011;20816;50.950;11.108;2023-02-14T14:37:17;7.60;;;3.80;;
34585;SDS011;20816;50.950;11.108;2023-02-14T14:39:49;6.37;;;3.67;;
34585;SDS011;20816;50.950;11.108;2023-02-14T14:42:17;4.97;;;3.30;;
34585;SDS011;20816;50.950;11.108;2023-02-14T14:44:46;6.00;;;3.90;;
34585;SDS011;20816;50.950;11.108;2023-02-14T14:47:23;6.93;;;4.57;;
34585;SDS011;20816;50.950;11.108;2023-02-14T14:49:52;6.23;;;3.57;;
34585;SDS011;20816;50.950;11.108;2023-02-14T14:52:40;7.53;;;4.87;;
34585;SDS011;20816;50.950;11.108;2023-02-14T14:55:20;5.73;;;3.47;;
34585;SDS011;20816;50.950;11.108;2023-02-14T14:57:51;7.53;;;5.00;;
34585;SDS011;20816;50.950;11.108;2023-02-14T15:00:32;6.47;;;4.57;;
34585;SDS011;20816;50.950;11.108;2023-02-14T15:03:13;5.43;;;4.57;;
34585;SDS011;20816;50.950;11.108;2023-02-14T15:05:46;6.93;;;3.50;;
34585;SDS011;20816;50.950;11.108;2023-02-14T15:10:52;7.57;;;4.73;;
34585;SDS011;20816;50.950;11.108;2023-02-14T15:13:45;7.27;;;4.97;;
34585;SDS011;20816;50.950;11.108;2023-02-14T15:16:18;7.47;;;4.77;;
34585;SDS011;20816;50.950;11.108;2023-02-14T15:18:47;7.47;;;4.10;;
34585;SDS011;20816;50.950;11.108;2023-02-14T15:21:16;7.77;;;4.60;;
34585;SDS011;20816;50.950;11.108;2023-02-14T15:23:43;7.43;;;3.90;;
34585;SDS011;20816;50.950;11.108;2023-02-14T15:26:18;8.60;;;5.33;;
34585;SDS011;20816;50.950;11.108;2023-02-14T15:28:53;7.77;;;4.10;;
34585;SDS011;20816;50.950;11.108;2023-02-14T15:31:21;8.43;;;4.93;;
34585;SDS011;20816;50.950;11.108;2023-02-14T15:33:55;6.87;;;4.93;;
34585;SDS011;20816;50.950;11.108;2023-02-14T15:36:25;7.77;;;5.23;;
34585;SDS011;20816;50.950;11.108;2023-02-14T15:38:52;8.50;;;3.90;;
34585;SDS011;20816;50.950;11.108;2023-02-14T15:41:22;8.00;;;4.27;;
34585;SDS011;20816;50.950;11.108;2023-02-14T15:43:59;8.73;;;4.57;;
34585;SDS011;20816;50.950;11.108;2023-02-14T15:46:31;8.73;;;4.60;;
34585;SDS011;20816;50.950;11.108;2023-02-14T15:49:05;7.90;;;4.20;;
34585;SDS011;20816;50.950;11.108;2023-02-14T15:51:34;7.77;;;4.70;;
34585;SDS011;20816;50.950;11.108;2023-02-14T15:54:07;9.23;;;4.93;;
34585;SDS011;20816;50.950;11.108;2023-02-14T15:56:46;6.97;;;4.33;;
34585;SDS011;20816;50.950;11.108;2023-02-14T15:59:18;8.50;;;4.83;;
34585;SDS011;20816;50.950;11.108;2023-02-14T16:01:48;8.50;;;5.90;;
34585;SDS011;20816;50.950;11.108;2023-02-14T16:04:22;7.63;;;4.90;;
34585;SDS011;20816;50.950;11.108;2023-02-14T16:10:13;7.67;;;4.10;;
34585;SDS011;20816;50.950;11.108;2023-02-14T16:15:32;11.60;;;5.67;;
34585;SDS011;20816;50.950;11.108;2023-02-14T16:18:02;7.43;;;4.43;;
34585;SDS011;20816;50.950;11.108;2023-02-14T16:20:42;7.00;;;4.00;;
34585;SDS011;20816;50.950;11.108;2023-02-14T16:25:44;7.73;;;5.17;;
34585;SDS011;20816;50.950;11.108;2023-02-14T16:28:19;9.20;;;4.90;;
34585;SDS011;20816;50.950;11.108;2023-02-14T16:30:46;9.73;;;5.53;;
34585;SDS011;20816;50.950;11.108;2023-02-14T16:33:21;8.93;;;4.63;;
34585;SDS011;20816;50.950;11.108;2023-02-14T16:35:50;9.07;;;5.33;;
34585;SDS011;20816;50.950;11.108;2023-02-14T16:38:19;7.10;;;4.40;;
34585;SDS011;20816;50.950;11.108;2023-02-14T16:40:48;8.87;;;4.70;;
34585;SDS011;20816;50.950;11.108;2023-02-14T16:43:18;9.37;;;5.73;;
34585;SDS011;20816;50.950;11.108;2023-02-14T16:45:46;6.90;;;4.50;;
34585;SDS011;20816;50.950;11.108;2023-02-14T16:48:18;8.73;;;4.87;;
34585;SDS011;20816;50.950;11.108;2023-02-14T16:50:45;7.00;;;3.60;;
34585;SDS011;20816;50.950;11.108;2023-02-14T16:53:34;12.23;;;4.83;;
34585;SDS011;20816;50.950;11.108;2023-02-14T16:55:59;70.07;;;8.03;;
34585;SDS011;20816;50.950;11.108;2023-02-14T16:58:27;26.20;;;6.13;;
34585;SDS011;20816;50.950;11.108;2023-02-14T17:00:58;37.57;;;7.03;;
34585;SDS011;20816;50.950;11.108;2023-02-14T17:03:25;11.17;;;5.20;;
34585;SDS011;20816;50.950;11.108;2023-02-14T17:05:53;8.63;;;5.20;;
34585;SDS011;20816;50.950;11.108;2023-02-14T17:08:24;8.23;;;4.80;;
34585;SDS011;20816;50.950;11.108;2023-02-14T17:10:51;8.67;;;5.17;;
34585;SDS011;20816;50.950;11.108;2023-02-14T17:13:19;9.20;;;5.13;;
34585;SDS011;20816;50.950;11.108;2023-02-14T17:15:49;9.90;;;5.37;;
34585;SDS011;20816;50.950;11.108;2023-02-14T17:18:16;15.60;;;5.80;;
34585;SDS011;20816;50.950;11.108;2023-02-14T17:20:46;8.47;;;5.13;;
34585;SDS011;20816;50.950;11.108;2023-02-14T17:23:13;8.20;;;4.87;;
34585;SDS011;20816;50.950;11.108;2023-02-14T17:25:40;8.03;;;4.70;;
34585;SDS011;20816;50.950;11.108;2023-02-14T17:28:08;10.17;;;5.63;;